createdAt,value
2019-05-15T01:01:03.725Z,79.85
2019-05-15T01:02:03.750Z,79.62
2019-05-15T01:03:03.779Z,79.81
2019-05-15T01:16:11.749Z,83.86
2019-05-15T01:17:12.790Z,83.76
2019-05-15T01:30:13.700Z,88.28
2019-05-15T01:32:13.358Z,87.28
2019-05-15T01:38:13.318Z,85.38
2019-05-15T01:39:13.348Z,84.91
2019-05-15T01:41:13.379Z,84.72
2019-05-15T01:43:13.456Z,84.62
2019-05-15T01:44:13.486Z,85.28
2019-05-15T01:45:13.922Z,85.47
2019-05-15T01:47:13.570Z,85.34
2019-05-15T01:48:15.117Z,84.91
2019-05-15T01:54:13.744Z,86.90
2019-05-15T01:55:13.771Z,86.24
2019-05-15T01:56:14.001Z,86.90
2019-05-15T01:57:13.828Z,86.33
2019-05-15T01:58:13.857Z,85.76
2019-05-15T01:59:13.884Z,85.95
2019-05-15T02:00:13.938Z,86.95
2019-05-15T02:01:13.941Z,88.04
2019-05-15T02:02:14.701Z,87.52
2019-05-15T02:03:13.997Z,88.00
2019-05-15T02:04:16.097Z,89.23
2019-05-15T02:06:14.081Z,89.71
2019-05-15T02:08:14.158Z,91.75
2019-05-15T02:12:14.273Z,93.37
2019-05-15T02:16:19.131Z,94.46
2019-05-15T02:19:14.438Z,95.70
2019-05-15T02:20:14.467Z,95.60
2019-05-15T02:21:14.495Z,96.74
2019-05-15T02:25:00.449Z,96.22
2019-05-15T02:26:00.178Z,95.94
2019-05-15T02:26:58.859Z,94.79
2019-05-15T02:27:58.661Z,95.27
2019-05-15T02:30:13.050Z,94.42
2019-05-15T02:30:58.745Z,94.70
2019-05-15T02:31:59.431Z,94.89
2019-05-15T02:32:59.181Z,95.55
2019-05-15T02:35:18.375Z,94.42
2019-05-15T02:36:15.200Z,94.42
2019-05-15T02:37:19.024Z,94.13
2019-05-15T02:39:18.973Z,94.42
2019-05-15T02:41:21.675Z,95.41
2019-05-15T02:42:15.766Z,96.26
2019-05-15T02:44:15.417Z,97.60
2019-05-15T02:45:15.469Z,97.60
2019-05-15T02:46:15.468Z,98.54
2019-05-15T02:47:15.725Z,98.83
2019-05-15T02:49:15.552Z,98.16
2019-05-15T02:50:15.577Z,97.22
2019-05-15T02:51:19.106Z,97.22
2019-05-15T02:52:15.630Z,97.31
2019-05-15T02:53:18.769Z,97.60
2019-05-15T02:54:19.288Z,98.45
2019-05-15T02:55:15.713Z,98.26
2019-05-15T02:56:15.941Z,97.78
2019-05-15T02:57:18.981Z,98.21
2019-05-15T02:58:20.463Z,98.30
2019-05-15T02:59:19.212Z,99.91
2019-05-15T03:00:32.659Z,99.99
2019-05-15T03:01:18.756Z,99.99
2019-05-15T03:05:19.474Z,99.99
2019-05-15T03:06:19.021Z,99.99
2019-05-15T03:07:18.968Z,99.99
2019-05-15T03:08:19.311Z,99.99
2019-05-15T03:09:18.808Z,99.99
2019-05-15T03:10:19.771Z,99.99
2019-05-15T03:11:18.968Z,99.99
2019-05-15T03:12:19.418Z,99.99
2019-05-15T03:13:19.038Z,99.99
2019-05-15T03:14:16.223Z,99.99
2019-05-15T03:15:19.433Z,99.99
2019-05-15T03:16:19.106Z,99.99
2019-05-15T03:17:19.087Z,99.99
2019-05-15T03:18:19.358Z,99.99
2019-05-15T03:21:18.803Z,99.99
2019-05-15T03:22:19.356Z,99.99
2019-05-15T03:23:19.542Z,99.99
2019-05-15T03:24:19.173Z,99.99
2019-05-15T03:25:19.165Z,99.99
2019-05-15T03:26:19.492Z,99.99
2019-05-15T03:27:19.427Z,99.99
2019-05-15T03:28:19.127Z,99.99
2019-05-15T03:29:16.621Z,99.99
2019-05-15T03:30:21.121Z,99.99
2019-05-15T03:31:35.673Z,99.99
2019-05-15T03:32:31.719Z,99.99
2019-05-15T03:33:25.707Z,99.99
2019-05-15T03:34:23.208Z,99.99
2019-05-15T03:35:22.159Z,99.99
2019-05-15T03:36:22.211Z,99.99
2019-05-15T03:37:22.148Z,99.99
2019-05-15T03:38:19.340Z,99.99
2019-05-15T03:39:19.031Z,99.99
2019-05-15T03:40:19.361Z,99.99
2019-05-15T03:41:19.504Z,99.99
2019-05-15T03:42:19.116Z,99.99
2019-05-15T03:43:18.648Z,99.99
2019-05-15T03:44:19.640Z,99.99
2019-05-15T03:45:19.201Z,99.99
2019-05-15T03:46:20.049Z,99.99
2019-05-15T03:47:19.414Z,99.99
2019-05-15T03:48:19.711Z,99.99
2019-05-15T03:49:19.678Z,99.99
2019-05-15T03:50:19.366Z,99.99
2019-05-15T03:51:19.839Z,99.99
2019-05-15T03:52:19.114Z,99.99
2019-05-15T03:53:19.221Z,99.99
2019-05-15T03:54:18.968Z,99.99
2019-05-15T03:55:18.683Z,99.99
2019-05-15T03:56:19.060Z,99.99
2019-05-15T03:57:22.691Z,99.99
2019-05-15T03:58:21.584Z,99.99
2019-05-15T03:59:19.282Z,99.99
2019-05-15T04:00:19.540Z,99.99
2019-05-15T04:01:30.204Z,99.99
2019-05-15T04:02:19.431Z,99.99
2019-05-15T04:03:20.205Z,99.99
2019-05-15T04:04:18.921Z,99.99
2019-05-15T04:05:19.922Z,99.99
2019-05-15T04:06:19.305Z,99.99
2019-05-15T04:07:18.805Z,99.99
2019-05-15T04:08:19.522Z,99.99
2019-05-15T04:09:18.961Z,99.99
2019-05-15T04:10:20.002Z,99.99
2019-05-15T04:11:20.286Z,99.99
2019-05-15T04:12:19.675Z,99.99
2019-05-15T04:13:19.530Z,99.99
2019-05-15T04:14:19.309Z,99.99
2019-05-15T04:15:18.703Z,99.99
2019-05-15T04:16:19.139Z,99.99
2019-05-15T04:17:19.781Z,99.99
2019-05-15T04:18:19.890Z,99.99
2019-05-15T04:19:19.100Z,99.99
2019-05-15T04:20:20.030Z,99.99
2019-05-15T04:21:20.120Z,99.99
2019-05-15T04:22:19.777Z,99.99
2019-05-15T04:23:19.094Z,99.99
2019-05-15T04:24:18.972Z,99.99
2019-05-15T04:25:19.143Z,99.99
2019-05-15T04:26:19.428Z,99.99
2019-05-15T04:27:19.706Z,99.99
2019-05-15T04:28:19.251Z,99.99
2019-05-15T04:29:19.488Z,99.99
2019-05-15T04:30:19.086Z,99.99
2019-05-15T04:31:19.363Z,99.99
2019-05-15T04:32:20.056Z,99.99
2019-05-15T04:33:19.896Z,99.99
2019-05-15T04:34:19.483Z,99.99
2019-05-15T04:35:19.749Z,99.99
2019-05-15T04:36:19.250Z,99.99
2019-05-15T04:37:19.037Z,99.99
2019-05-15T04:38:19.554Z,99.99
2019-05-15T04:39:19.314Z,99.99
2019-05-15T04:40:19.344Z,99.99
2019-05-15T04:41:19.774Z,99.99
2019-05-15T04:42:20.249Z,99.99
2019-05-15T04:43:19.380Z,99.99
2019-05-15T04:44:19.341Z,99.99
2019-05-15T04:45:19.461Z,99.99
2019-05-15T04:46:19.711Z,99.99
2019-05-15T04:47:19.341Z,99.99
2019-05-15T04:48:20.098Z,99.99
2019-05-15T04:49:19.313Z,99.99
2019-05-15T04:50:19.344Z,99.99
2019-05-15T04:51:19.134Z,99.99
2019-05-15T04:52:19.504Z,99.99
2019-05-15T04:53:19.375Z,99.99
2019-05-15T04:54:19.995Z,99.99
2019-05-15T04:55:19.654Z,99.99
2019-05-15T04:56:19.398Z,99.99
2019-05-15T04:57:19.506Z,99.99
2019-05-15T04:58:20.776Z,99.99
2019-05-15T04:59:19.696Z,99.99
2019-05-15T05:00:19.892Z,99.99
2019-05-15T05:01:20.084Z,99.99
2019-05-15T05:02:26.469Z,99.99
2019-05-15T05:03:20.093Z,99.99
2019-05-15T05:04:19.141Z,99.99
2019-05-15T05:05:19.166Z,99.99
2019-05-15T05:06:19.289Z,99.99
2019-05-15T05:07:19.227Z,99.99
2019-05-15T05:08:20.409Z,99.99
2019-05-15T05:09:20.013Z,99.99
2019-05-15T05:10:19.711Z,99.99
2019-05-15T05:11:23.261Z,99.99
2019-05-15T05:12:19.540Z,99.99
2019-05-15T05:13:20.247Z,99.99
2019-05-15T05:14:19.409Z,99.99
2019-05-15T05:15:19.436Z,99.99
2019-05-15T05:16:19.465Z,99.99
2019-05-15T05:18:09.531Z,99.99
2019-05-15T05:19:08.945Z,99.99
2019-05-15T05:20:08.029Z,99.99
2019-05-15T05:21:07.776Z,99.99
2019-05-15T05:22:07.857Z,99.99
2019-05-15T05:23:08.529Z,99.99
2019-05-15T05:24:08.083Z,99.99
2019-05-15T05:25:08.110Z,99.99
2019-05-15T05:26:10.560Z,99.99
2019-05-15T05:27:08.737Z,99.99
2019-05-15T05:28:08.740Z,99.99
2019-05-15T05:29:08.568Z,99.99
2019-05-15T05:30:08.476Z,99.99
2019-05-15T05:31:08.353Z,99.99
2019-05-15T05:32:09.146Z,99.99
2019-05-15T05:33:08.521Z,99.44
2019-05-15T05:34:08.227Z,99.69
2019-05-15T05:35:08.495Z,99.02
2019-05-15T05:36:08.059Z,98.64
2019-05-15T05:37:07.861Z,99.40
2019-05-15T05:38:07.922Z,98.26
2019-05-15T05:39:09.662Z,98.74
2019-05-15T05:40:08.092Z,98.36
2019-05-15T05:41:08.296Z,98.64
2019-05-15T05:42:07.927Z,98.26
2019-05-15T05:43:09.475Z,98.55
2019-05-15T05:44:08.174Z,98.45
2019-05-15T05:45:09.215Z,97.97
2019-05-15T05:46:09.241Z,98.36
2019-05-15T05:47:09.307Z,98.55
2019-05-15T05:48:08.834Z,97.97
2019-05-15T05:49:08.153Z,97.74
2019-05-15T05:50:08.165Z,97.74
2019-05-15T05:51:09.273Z,97.45
2019-05-15T05:52:08.453Z,96.60
2019-05-15T05:53:08.809Z,96.50
2019-05-15T05:54:08.430Z,96.60
2019-05-15T05:55:08.831Z,96.98
2019-05-15T05:56:08.926Z,95.46
2019-05-15T05:57:09.147Z,95.75
2019-05-15T05:58:08.252Z,95.60
2019-05-15T05:59:09.373Z,95.70
2019-05-15T06:00:09.260Z,95.03
2019-05-15T06:01:09.372Z,94.84
2019-05-15T06:02:08.446Z,94.27
2019-05-15T06:03:08.784Z,94.18
2019-05-15T06:04:08.308Z,93.23
2019-05-15T06:05:08.349Z,92.94
2019-05-15T06:06:09.857Z,92.32
2019-05-15T06:07:13.230Z,91.84
2019-05-15T06:08:08.423Z,91.56
2019-05-15T06:09:09.229Z,91.75
2019-05-15T06:10:08.962Z,90.89
2019-05-15T06:11:09.776Z,90.32
2019-05-15T06:12:08.535Z,89.84
2019-05-15T06:13:08.862Z,89.94
2019-05-15T06:14:08.854Z,90.13
2019-05-15T06:15:09.089Z,89.37
2019-05-15T06:16:08.694Z,89.56
2019-05-15T06:17:08.677Z,90.70
2019-05-15T06:18:08.714Z,90.84
2019-05-15T06:19:08.737Z,90.36
2019-05-15T06:20:08.763Z,90.36
2019-05-15T06:21:09.263Z,90.36
2019-05-15T06:22:08.945Z,90.17
2019-05-15T06:23:08.848Z,88.84
2019-05-15T06:24:13.201Z,89.32
2019-05-15T06:25:11.423Z,88.65
2019-05-15T06:26:09.518Z,87.89
2019-05-15T06:27:08.964Z,87.89
2019-05-15T06:28:09.232Z,87.79
2019-05-15T06:29:09.050Z,87.89
2019-05-15T06:30:14.653Z,87.32
2019-05-15T06:31:09.079Z,87.60
2019-05-15T06:32:09.107Z,87.89
2019-05-15T06:33:13.221Z,87.41
2019-05-15T06:34:09.167Z,87.23
2019-05-15T06:35:09.196Z,87.41
2019-05-15T06:36:09.338Z,87.13
2019-05-15T06:37:09.253Z,87.51
2019-05-15T06:38:09.284Z,88.08
2019-05-15T06:39:09.314Z,88.08
2019-05-15T06:40:09.340Z,86.79
2019-05-15T06:41:09.370Z,87.23
2019-05-15T06:42:10.339Z,87.46
2019-05-15T06:43:58.920Z,86.94
2019-05-15T06:44:58.952Z,86.69
2019-05-15T06:45:58.425Z,87.27
2019-05-15T06:46:58.780Z,86.79
2019-05-15T06:47:58.273Z,86.98
2019-05-15T06:48:58.069Z,87.07
2019-05-15T06:49:57.953Z,86.84
2019-05-15T06:50:58.001Z,87.51
2019-05-15T06:51:58.152Z,86.98
2019-05-15T06:52:58.756Z,86.51
2019-05-15T06:53:58.313Z,85.55
2019-05-15T06:54:59.317Z,85.55
2019-05-15T06:55:58.526Z,85.08
2019-05-15T06:56:58.354Z,85.46
2019-05-15T06:57:58.412Z,85.64
2019-05-15T06:58:58.206Z,85.21
2019-05-15T06:59:57.983Z,84.55
2019-05-15T07:00:59.253Z,84.07
2019-05-15T07:01:59.342Z,83.69
2019-05-15T07:02:58.297Z,83.64
2019-05-15T07:03:59.006Z,82.20
2019-05-15T07:05:40.148Z,80.01
2019-05-15T07:06:40.179Z,79.91
2019-05-15T07:07:40.231Z,79.53
2019-05-15T07:08:40.240Z,78.86
2019-05-15T07:09:40.471Z,78.10
2019-05-15T07:10:40.724Z,77.53
2019-05-15T07:11:40.329Z,77.34
2019-05-15T07:12:40.357Z,77.72
2019-05-15T07:13:40.390Z,76.10
2019-05-15T07:14:40.421Z,75.81
2019-05-15T07:15:40.450Z,76.71
2019-05-15T07:16:40.480Z,75.95
2019-05-15T07:17:40.512Z,74.71
2019-05-15T07:18:40.540Z,74.99
2019-05-15T07:19:40.571Z,73.79
2019-05-15T07:20:40.599Z,72.93
2019-05-15T07:21:40.630Z,72.45
2019-05-15T07:22:40.684Z,72.55
2019-05-15T07:23:40.691Z,72.93
2019-05-15T07:24:40.722Z,72.58
2019-05-15T07:25:40.755Z,72.01
2019-05-15T07:26:40.821Z,70.87
2019-05-15T07:27:40.814Z,70.39
2019-05-15T07:28:40.866Z,69.40
2019-05-15T07:29:40.875Z,69.87
2019-05-15T07:30:41.373Z,70.20
2019-05-15T07:31:40.937Z,69.82
2019-05-15T07:32:40.996Z,69.91
2019-05-15T07:33:43.772Z,70.58
2019-05-15T07:35:41.237Z,70.42
2019-05-15T07:36:39.214Z,70.71
2019-05-15T07:37:39.049Z,71.95
2019-05-15T07:38:39.314Z,71.57
2019-05-15T07:39:38.747Z,72.81
2019-05-15T07:40:39.646Z,72.24
2019-05-15T07:41:39.157Z,73.39
2019-05-15T07:42:39.072Z,73.29
2019-05-15T07:43:38.864Z,74.05
2019-05-15T07:44:39.104Z,74.49
2019-05-15T07:45:43.761Z,74.88
2019-05-15T07:46:38.962Z,76.21
2019-05-15T07:47:39.042Z,75.35
2019-05-15T07:48:39.021Z,75.30
2019-05-15T07:49:39.086Z,74.30
2019-05-15T07:50:39.086Z,75.35
2019-05-15T07:51:39.116Z,75.49
2019-05-15T07:52:39.627Z,75.96
2019-05-15T07:53:39.180Z,74.53
2019-05-15T07:54:39.210Z,75.10
2019-05-15T07:55:39.542Z,75.59
2019-05-15T07:56:39.275Z,74.38
2019-05-15T07:57:39.778Z,75.10
2019-05-15T07:58:39.343Z,73.86
2019-05-15T07:59:39.375Z,74.24
2019-05-15T08:00:39.698Z,75.01
2019-05-15T08:01:39.432Z,74.82
2019-05-15T08:02:39.464Z,74.91
2019-05-15T08:03:55.069Z,74.91
2019-05-15T08:04:39.528Z,75.20
2019-05-15T08:05:54.688Z,74.63
2019-05-15T08:06:39.590Z,74.82
2019-05-15T08:07:39.625Z,74.24
2019-05-15T08:08:39.687Z,73.90
2019-05-15T08:09:39.685Z,73.43
2019-05-15T08:10:39.843Z,73.71
2019-05-15T08:11:39.752Z,72.69
2019-05-15T08:12:39.783Z,72.60
2019-05-15T08:14:39.845Z,72.37
2019-05-15T08:15:39.880Z,72.28
2019-05-15T08:16:39.915Z,72.94
2019-05-15T08:17:58.583Z,72.37
2019-05-15T08:18:39.974Z,71.93
2019-05-15T08:19:40.024Z,71.16
2019-05-15T08:20:40.037Z,71.73
2019-05-15T08:21:40.069Z,70.78
2019-05-15T08:22:40.101Z,70.97
2019-05-15T08:23:40.147Z,71.36
2019-05-15T08:24:40.170Z,71.26
2019-05-15T08:25:40.201Z,70.91
2019-05-15T08:26:45.284Z,70.15
2019-05-15T08:27:40.263Z,69.76
2019-05-15T08:28:40.298Z,68.80
2019-05-15T08:29:40.328Z,68.17
2019-05-15T08:30:40.371Z,67.88
2019-05-15T08:31:40.393Z,67.88
2019-05-15T08:32:40.458Z,67.25
2019-05-15T08:33:40.464Z,66.96
2019-05-15T08:34:40.491Z,66.38
2019-05-15T08:35:43.800Z,65.52
2019-05-15T08:36:40.557Z,66.09
2019-05-15T08:37:40.590Z,66.09
2019-05-15T08:38:40.622Z,66.19
2019-05-15T08:39:40.656Z,66.48
2019-05-15T08:40:41.201Z,65.71
2019-05-15T08:41:40.726Z,65.11
2019-05-15T08:42:42.059Z,65.42
2019-05-15T08:43:41.015Z,64.66
2019-05-15T08:44:41.152Z,65.11
2019-05-15T08:46:44.164Z,65.01
2019-05-15T08:47:40.927Z,65.20
2019-05-15T08:48:40.956Z,65.81
2019-05-15T08:49:41.223Z,65.81
2019-05-15T08:50:41.026Z,64.12
2019-05-15T08:51:41.057Z,64.02
2019-05-15T08:52:41.092Z,63.89
2019-05-15T08:53:41.125Z,64.72
2019-05-15T08:54:41.166Z,65.08
2019-05-15T08:55:41.196Z,65.88
2019-05-15T08:56:41.227Z,64.56
2019-05-15T08:57:41.259Z,65.14
2019-05-15T08:58:41.294Z,63.70
2019-05-15T08:59:41.434Z,63.13
2019-05-15T09:00:44.039Z,64.18
2019-05-15T09:01:41.395Z,61.98
2019-05-15T09:02:44.052Z,62.07
2019-05-15T09:03:41.518Z,62.87
2019-05-15T09:04:41.499Z,62.17
2019-05-15T09:05:41.531Z,62.20
2019-05-15T09:06:41.680Z,62.01
2019-05-15T09:07:41.606Z,61.82
2019-05-15T09:08:41.692Z,61.21
2019-05-15T09:09:41.667Z,61.40
2019-05-15T09:10:41.704Z,61.31
2019-05-15T09:11:41.736Z,61.43
2019-05-15T09:12:41.772Z,60.67
2019-05-15T09:13:43.755Z,60.28
2019-05-15T09:14:41.839Z,59.71
2019-05-15T09:15:41.882Z,60.09
2019-05-15T09:16:41.908Z,59.80
2019-05-15T09:17:41.942Z,59.23
2019-05-15T09:18:41.987Z,58.27
2019-05-15T09:19:42.009Z,58.56
2019-05-15T09:20:42.098Z,59.04
2019-05-15T09:21:42.078Z,59.33
2019-05-15T09:22:42.112Z,58.59
2019-05-15T09:23:42.160Z,58.20
2019-05-15T09:24:42.181Z,58.11
2019-05-15T09:25:42.214Z,58.37
2019-05-15T09:26:42.248Z,59.13
2019-05-15T09:27:42.285Z,59.11
2019-05-15T09:28:42.320Z,59.52
2019-05-15T09:29:42.354Z,59.55
2019-05-15T09:30:42.387Z,59.06
2019-05-15T09:31:42.419Z,57.34
2019-05-15T09:32:42.455Z,57.76
2019-05-15T09:33:42.487Z,58.15
2019-05-15T09:34:50.714Z,57.57
2019-05-15T09:35:42.556Z,57.48
2019-05-15T09:36:45.284Z,57.92
2019-05-15T09:37:42.628Z,58.62
2019-05-15T09:38:42.658Z,58.15
2019-05-15T09:39:42.694Z,57.48
2019-05-15T09:40:46.509Z,57.89
2019-05-15T09:41:42.761Z,56.07
2019-05-15T09:42:42.796Z,55.78
2019-05-15T09:43:42.833Z,55.71
2019-05-15T09:44:42.865Z,56.09
2019-05-15T09:45:42.898Z,56.22
2019-05-15T09:46:42.932Z,54.97
2019-05-15T09:47:42.973Z,54.23
2019-05-15T09:48:43.010Z,53.66
2019-05-15T09:49:43.036Z,54.33
2019-05-15T09:50:43.070Z,53.53
2019-05-15T09:51:43.310Z,52.98
2019-05-15T09:52:43.144Z,53.36
2019-05-15T09:53:43.175Z,53.75
2019-05-15T09:54:43.209Z,53.34
2019-05-15T09:55:43.247Z,54.30
2019-05-15T09:56:43.281Z,54.01
2019-05-15T09:57:43.313Z,54.30
2019-05-15T09:58:43.449Z,54.21
2019-05-15T09:59:43.389Z,54.27
2019-05-15T10:00:43.428Z,54.46
2019-05-15T10:01:43.453Z,55.80
2019-05-15T10:02:43.490Z,55.52
2019-05-15T10:03:44.526Z,54.97
2019-05-15T10:05:43.610Z,54.88
2019-05-15T10:06:43.628Z,53.72
2019-05-15T10:07:43.664Z,53.79
2019-05-15T10:08:43.699Z,53.70
2019-05-15T10:09:43.733Z,54.11
2019-05-15T10:10:43.773Z,53.53
2019-05-15T10:11:43.802Z,53.24
2019-05-15T10:12:43.847Z,53.36
2019-05-15T10:13:43.873Z,53.46
2019-05-15T10:14:49.140Z,53.23
2019-05-15T10:15:47.434Z,52.17
2019-05-15T10:16:43.984Z,51.88
2019-05-15T10:17:44.015Z,52.08
2019-05-15T10:18:44.051Z,53.01
2019-05-15T10:19:44.088Z,52.42
2019-05-15T10:20:44.132Z,50.06
2019-05-15T10:21:44.160Z,46.47
2019-05-15T10:22:44.196Z,45.58
2019-05-15T10:23:44.235Z,46.69
2019-05-15T10:24:44.273Z,47.15
2019-05-15T10:25:44.310Z,46.95
2019-05-15T10:26:44.349Z,48.30
2019-05-15T10:27:44.388Z,51.21
2019-05-15T10:28:44.433Z,49.58
2019-05-15T10:29:44.464Z,47.58
2019-05-15T10:30:44.503Z,47.31
2019-05-15T10:31:44.543Z,47.92
2019-05-15T10:32:44.588Z,48.11
2019-05-15T10:33:44.620Z,48.18
2019-05-15T10:34:44.690Z,46.91
2019-05-15T10:35:44.701Z,46.64
2019-05-15T10:36:44.739Z,47.94
2019-05-15T10:37:44.780Z,45.79
2019-05-15T10:38:44.886Z,44.42
2019-05-15T10:39:44.859Z,41.88
2019-05-15T10:41:00.277Z,41.93
2019-05-15T10:41:44.939Z,41.23
2019-05-15T10:42:44.988Z,42.71
2019-05-15T10:43:47.335Z,44.67
2019-05-15T10:44:45.063Z,45.90
2019-05-15T10:45:45.138Z,46.73
2019-05-15T10:46:45.144Z,44.11
2019-05-15T10:47:45.186Z,45.03
2019-05-15T10:48:45.226Z,45.31
2019-05-15T10:49:45.264Z,43.14
2019-05-15T10:50:45.306Z,42.69
2019-05-15T10:51:45.348Z,45.22
2019-05-15T10:52:45.390Z,46.43
2019-05-15T10:53:45.429Z,47.56
2019-05-15T10:54:45.472Z,48.69
2019-05-15T10:55:45.511Z,45.89
2019-05-15T10:56:45.552Z,42.99
2019-05-15T10:57:45.603Z,40.67
2019-05-15T10:58:50.082Z,41.86
2019-05-15T10:59:47.727Z,42.58
2019-05-15T11:00:49.008Z,40.59
2019-05-15T11:01:48.497Z,39.74
2019-05-15T11:02:45.804Z,38.93
2019-05-15T11:03:45.866Z,39.39
2019-05-15T11:04:48.583Z,39.12
2019-05-15T11:07:48.242Z,40.30
2019-05-15T11:08:50.926Z,42.65
2019-05-15T11:10:49.422Z,45.97
2019-05-15T11:11:51.185Z,47.36
2019-05-15T11:12:46.224Z,46.78
2019-05-15T11:13:46.598Z,44.37
2019-05-15T11:14:46.514Z,41.69
2019-05-15T11:15:48.853Z,41.94
2019-05-15T11:16:48.636Z,42.96
2019-05-15T11:17:48.934Z,44.96
2019-05-15T11:18:48.245Z,45.13
2019-05-15T11:19:49.768Z,45.83
2019-05-15T11:20:48.789Z,45.36
2019-05-15T11:21:48.487Z,45.07
2019-05-15T11:22:49.648Z,44.19
2019-05-15T11:23:49.204Z,45.07
2019-05-15T11:24:49.756Z,45.26
2019-05-15T11:25:48.699Z,42.16
2019-05-15T11:26:49.925Z,39.70
2019-05-15T11:27:48.444Z,41.40
2019-05-15T11:28:49.471Z,40.61
2019-05-15T11:29:47.752Z,38.54
2019-05-15T11:30:49.070Z,38.07
2019-05-15T11:31:48.771Z,35.69
2019-05-15T11:32:48.637Z,34.56
2019-05-15T11:33:49.255Z,34.01
2019-05-15T11:34:49.283Z,33.34
2019-05-15T11:35:58.137Z,33.33
2019-05-15T11:36:48.461Z,33.33
2019-05-15T11:37:55.720Z,32.37
2019-05-15T11:38:48.578Z,32.75
2019-05-15T11:39:47.555Z,32.64
2019-05-15T11:40:47.414Z,32.47
2019-05-15T11:41:49.303Z,32.76
2019-05-15T11:42:48.768Z,32.02
2019-05-15T11:43:49.599Z,32.29
2019-05-15T11:44:48.397Z,32.34
2019-05-15T11:45:48.230Z,31.73
2019-05-15T11:46:49.577Z,31.21
2019-05-15T11:47:48.354Z,31.66
2019-05-15T11:48:49.742Z,32.96
2019-05-15T11:49:47.831Z,34.67
2019-05-15T11:51:30.436Z,36.46
2019-05-15T11:52:30.818Z,37.95
2019-05-15T11:53:30.528Z,38.99
2019-05-15T11:54:30.575Z,39.94
2019-05-15T11:55:30.617Z,40.70
2019-05-15T11:56:30.661Z,40.95
2019-05-15T11:57:42.325Z,41.99
2019-05-15T11:58:30.747Z,44.07
2019-05-15T11:59:30.792Z,44.74
2019-05-15T12:00:30.832Z,45.29
2019-05-15T12:01:34.326Z,45.10
2019-05-15T12:02:30.939Z,46.04
2019-05-15T12:03:30.991Z,45.95
2019-05-15T12:04:34.008Z,46.43
2019-05-15T12:05:31.038Z,46.62
2019-05-15T12:06:31.076Z,45.85
2019-05-15T12:07:31.120Z,46.45
2019-05-15T12:08:31.183Z,45.97
2019-05-15T12:09:31.198Z,46.64
2019-05-15T12:10:31.234Z,43.96
2019-05-15T12:11:36.933Z,40.96
2019-05-15T12:12:32.042Z,38.62
2019-05-15T12:14:31.393Z,34.46
2019-05-15T12:15:31.454Z,34.89
2019-05-15T12:16:35.536Z,36.04
2019-05-15T12:18:31.987Z,36.46
2019-05-15T12:19:31.817Z,36.46
2019-05-15T12:20:31.662Z,37.63
2019-05-15T12:21:34.301Z,35.54
2019-05-15T12:22:31.717Z,34.27
2019-05-15T12:23:31.785Z,31.55
2019-05-15T12:24:36.569Z,31.37
2019-05-15T12:25:32.118Z,33.23
2019-05-15T12:26:31.980Z,35.84
2019-05-15T12:27:31.930Z,37.93
2019-05-15T12:28:31.973Z,38.93
2019-05-15T12:29:32.026Z,39.39
2019-05-15T12:30:32.056Z,40.16
2019-05-15T12:31:32.098Z,41.22
2019-05-15T12:33:32.220Z,42.63
2019-05-15T12:34:32.246Z,43.75
2019-05-15T12:35:32.287Z,40.20
2019-05-15T12:36:50.794Z,35.27
2019-05-15T12:37:32.345Z,33.20
2019-05-15T12:39:32.424Z,35.31
2019-05-15T12:59:40.767Z,25.78
2019-05-15T13:00:33.290Z,24.74
2019-05-15T13:02:15.891Z,24.21
2019-05-15T13:03:18.110Z,25.02
2019-05-15T13:04:15.980Z,24.91
2019-05-15T13:05:16.034Z,25.98
2019-05-15T13:06:19.029Z,27.75
2019-05-15T13:07:17.850Z,29.27
2019-05-15T13:08:16.163Z,31.28
2019-05-15T13:09:16.203Z,32.14
2019-05-15T13:10:18.407Z,34.48
2019-05-15T13:11:18.022Z,37.33
2019-05-15T13:12:18.251Z,38.76
2019-05-15T13:13:18.655Z,39.26
2019-05-15T13:14:18.732Z,39.16
2019-05-15T13:15:18.749Z,39.06
2019-05-15T13:16:18.391Z,39.62
2019-05-15T13:17:18.357Z,40.43
2019-05-15T13:18:18.007Z,41.95
2019-05-15T13:19:18.981Z,43.11
2019-05-15T13:20:18.434Z,43.03
2019-05-15T13:21:20.733Z,43.03
2019-05-15T13:22:20.584Z,43.71
2019-05-15T13:23:16.801Z,44.55
2019-05-15T13:24:19.292Z,43.68
2019-05-15T13:25:18.875Z,42.91
2019-05-15T13:26:23.876Z,42.36
2019-05-15T13:27:18.255Z,41.27
2019-05-15T13:28:18.362Z,39.87
2019-05-15T13:29:18.257Z,38.71
2019-05-15T13:30:18.345Z,39.16
2019-05-15T13:31:19.081Z,37.98
2019-05-15T13:32:17.156Z,36.46
2019-05-15T13:33:17.195Z,36.03
2019-05-15T13:34:19.719Z,36.61
2019-05-15T13:35:18.389Z,36.79
2019-05-15T13:36:19.685Z,37.46
2019-05-15T13:37:26.723Z,38.21
2019-05-15T13:38:18.057Z,38.58
2019-05-15T13:39:18.453Z,38.68
2019-05-15T13:40:18.603Z,38.95
2019-05-15T13:41:18.922Z,39.41
2019-05-15T13:42:18.132Z,39.89
2019-05-15T13:43:18.616Z,39.79
2019-05-15T13:44:18.712Z,39.31
2019-05-15T13:45:18.297Z,39.29
2019-05-15T13:46:20.557Z,38.81
2019-05-15T13:47:17.855Z,39.29
2019-05-15T13:48:19.922Z,39.28
2019-05-15T13:49:18.728Z,37.92
2019-05-15T13:50:19.486Z,36.33
2019-05-15T13:51:18.290Z,35.23
2019-05-15T13:52:18.773Z,33.52
2019-05-15T13:53:18.463Z,31.85
2019-05-15T13:54:18.750Z,29.76
2019-05-15T13:55:24.642Z,30.25
2019-05-15T13:56:18.285Z,28.53
2019-05-15T13:57:18.230Z,28.44
2019-05-15T13:58:21.607Z,27.28
2019-05-15T13:59:18.421Z,26.02
2019-05-15T14:02:44.393Z,27.83
2019-05-15T14:03:44.541Z,30.41
2019-05-15T14:04:44.271Z,32.41
2019-05-15T14:05:45.206Z,33.44
2019-05-15T14:06:44.333Z,34.66
2019-05-15T14:07:49.189Z,37.33
2019-05-15T14:08:44.416Z,38.66
2019-05-15T14:09:44.938Z,39.34
2019-05-15T14:10:44.498Z,39.61
2019-05-15T14:11:44.541Z,39.78
2019-05-15T14:12:44.582Z,40.36
2019-05-15T14:13:44.624Z,40.45
2019-05-15T14:14:44.662Z,39.78
2019-05-15T14:15:44.702Z,39.29
2019-05-15T14:16:44.743Z,39.11
2019-05-15T14:17:44.794Z,38.91
2019-05-15T14:18:44.821Z,39.49
2019-05-15T14:19:44.861Z,39.20
2019-05-15T14:20:44.901Z,39.68
2019-05-15T14:21:44.939Z,39.76
2019-05-15T14:22:44.978Z,36.49
2019-05-15T14:23:45.019Z,33.26
2019-05-15T14:24:45.065Z,31.87
2019-05-15T14:25:45.100Z,31.71
2019-05-15T14:26:45.136Z,33.38
2019-05-15T14:27:45.176Z,32.06
2019-05-15T14:28:45.243Z,33.20
2019-05-15T14:29:45.458Z,34.41
2019-05-15T14:30:45.299Z,34.87
2019-05-15T14:31:45.361Z,35.92
2019-05-15T14:32:45.377Z,36.00
2019-05-15T14:33:45.417Z,36.85
2019-05-15T14:34:48.394Z,36.82
2019-05-15T14:35:45.496Z,34.92
2019-05-15T14:36:45.544Z,33.91
2019-05-15T14:38:00.025Z,32.37
2019-05-15T14:38:45.617Z,32.34
2019-05-15T14:39:45.658Z,33.57
2019-05-15T14:40:45.697Z,35.28
2019-05-15T14:41:45.736Z,36.59
2019-05-15T14:42:48.337Z,37.58
2019-05-15T14:43:45.819Z,39.12
2019-05-15T14:44:48.411Z,36.99
2019-05-15T14:45:47.993Z,34.53
2019-05-15T14:46:45.937Z,32.44
2019-05-15T14:47:45.998Z,32.34
2019-05-15T14:48:46.018Z,33.34
2019-05-15T14:49:49.227Z,35.80
2019-05-15T14:50:47.630Z,36.85
2019-05-15T14:51:48.375Z,37.63
2019-05-15T14:52:47.977Z,38.49
2019-05-15T14:53:46.221Z,38.28
2019-05-15T14:54:48.826Z,38.64
2019-05-15T14:55:49.192Z,39.41
2019-05-15T14:56:48.604Z,39.70
2019-05-15T14:57:48.731Z,39.70
2019-05-15T14:58:48.035Z,39.61
2019-05-15T14:59:48.666Z,39.51
2019-05-15T15:00:49.904Z,40.16
2019-05-15T15:01:48.415Z,40.55
2019-05-15T15:02:49.127Z,41.11
2019-05-15T15:03:48.823Z,41.11
2019-05-15T15:04:48.624Z,41.30
2019-05-15T15:05:49.093Z,41.78
2019-05-15T15:06:48.748Z,41.88
2019-05-15T15:07:49.107Z,41.68
2019-05-15T15:08:48.666Z,42.03
2019-05-15T15:09:47.761Z,40.01
2019-05-15T15:11:48.376Z,36.92
2019-05-15T15:12:49.724Z,35.85
2019-05-15T15:13:47.202Z,33.64
2019-05-15T15:14:48.572Z,34.30
2019-05-15T15:15:48.471Z,34.86
2019-05-15T15:16:48.956Z,34.55
2019-05-15T15:17:49.322Z,35.88
2019-05-15T15:18:48.321Z,37.56
2019-05-15T15:19:51.499Z,37.98
2019-05-15T15:20:48.480Z,38.53
2019-05-15T15:21:48.705Z,39.74
2019-05-15T15:22:48.543Z,40.49
2019-05-15T15:23:48.111Z,40.49
2019-05-15T15:24:48.279Z,40.76
2019-05-15T15:25:48.424Z,41.24
2019-05-15T15:26:49.285Z,41.99
2019-05-15T15:27:47.985Z,41.97
2019-05-15T15:28:48.910Z,41.78
2019-05-15T15:29:48.328Z,41.88
2019-05-15T15:30:48.612Z,42.26
2019-05-15T15:31:49.455Z,43.05
2019-05-15T15:32:48.948Z,42.19